Station: Coober Pedy Airport

  Atmospheric Gas Attenuation - ITU Rec 676-11   --------------- db/100km ---------------
Date Time Temp RH % AH g/m3 Dew Point Wind Direction Speed kph Gust kph Barometer mB Rainfall Since 9am 24GHz 47GHz 76GHz 122GHz 134GHz 241GHz
15 01:00 9.8 66 6.13 3.8 15 15 1020.6 0 14.5 23.3 32.2 83.9 71.2 242.6
15 00:50 9.8 64 5.94 3.3 15 15 1020.8 0 14.1 23.0 31.5 82.0 68.8 234.1
15 00:40 10.1 64 6.05 3.6 13 13 1020.7 0 14.3 23.1 31.8 82.8 69.9 238.1
15 00:30 10.2 63 6 3.5 13 15 1020.8 0 14.2 23.0 31.5 82.2 69.2 235.6
15 00:20 10.4 62 5.98 3.4 13 13 1020.9 0 14.1 23.0 31.4 81.8 68.8 234.2
15 00:10 10.5 61 5.92 3.3 13 15 1020.9 0 14.0 22.8 31.1 81.1 68.0 231.2
15 00:00 11 59 5.91 3.3 13 15 1020.6 0 14.0 22.7 30.9 80.5 67.4 229.3
14 23:50 11.4 59 6.06 3.7 13 13 1020.5 0 14.3 22.8 31.3 81.6 68.9 234.7
14 23:40 11.3 59 6.02 3.6 15 15 1020.7 0 14.2 22.8 31.2 81.3 68.5 233.3
14 23:30 11.4 58 5.95 3.4 13 15 1020.9 0 14.0 22.7 30.9 80.5 67.6 230.0
14 23:20 11.6 58 6.03 3.6 13 15 1021 0 14.2 22.7 31.1 81.1 68.4 232.9
14 23:10 11.4 56 5.75 2.9 15 15 1021.2 0 13.6 22.4 30.1 78.5 65.1 221.4
14 23:00 11.5 55 5.68 2.8 15 15 1021.3 0 13.5 22.2 29.9 77.7 64.2 218.1
14 22:50 11.5 54 5.58 2.5 13 13 1021.2 0 13.2 22.1 29.5 76.7 62.9 213.8
14 22:40 11.8 54 5.68 2.8 13 13 1021 0 13.5 22.2 29.7 77.4 63.9 217.2
14 22:30 12.1 53 5.68 2.8 13 13 1021.1 0 13.4 22.1 29.6 77.1 63.7 216.4
14 22:20 12.2 53 5.72 2.9 13 13 1021.1 0 13.5 22.1 29.7 77.4 64.1 217.9
14 22:10 12.3 52 5.65 2.7 13 13 1021 0 13.4 22.0 29.4 76.6 63.2 214.6
14 22:00 12.4 51 5.57 2.6 13 13 1021.1 0 13.2 21.9 29.1 75.8 62.1 211.0
14 21:50 12.6 51 5.64 2.7 13 13 1021.1 0 13.3 21.9 29.3 76.3 62.8 213.4
14 21:40 12.6 50 5.53 2.5 13 13 1021.2 0 13.1 21.8 28.9 75.2 61.5 208.8
14 21:30 13 49 5.56 2.5 11 13 1021.2 0 13.2 21.7 28.9 75.1 61.5 209.0
14 21:20 13.5 48 5.61 2.7 13 13 1021.1 0 13.2 21.7 28.9 75.1 61.7 209.8
14 21:10 13.6 48 5.65 2.8 15 15 1021.1 0 13.3 21.7 29.0 75.4 62.1 211.2
14 21:00 13.8 47 5.6 2.7 15 15 1021.1 0 13.2 21.6 28.7 74.8 61.4 208.6
14 20:50 14.3 45 5.53 2.5 15 15 1021 0 13.0 21.4 28.3 73.6 60.2 204.4
14 20:40 14.8 44 5.57 2.7 13 15 1020.5 0 13.1 21.3 28.3 73.5 60.2 204.7
14 20:30 15.1 44 5.68 3 15 15 1020.6 0 13.3 21.4 28.5 74.3 61.3 208.5
14 20:20 15.1 43 5.55 2.6 15 17 1020.4 0 13.1 21.2 28.1 73.0 59.8 203.1
14 20:10 15 43 5.51 2.5 13 15 1020.8 0 13.0 21.2 28.0 72.8 59.4 201.8
14 20:00 15 41 5.26 1.9 15 15 1021.1 0 12.5 20.8 27.1 70.5 56.5 191.8
14 19:50 15.6 40 5.32 2.1 13 15 1020.5 0 12.6 20.7 27.1 70.5 56.8 192.7
14 19:40 15.9 39 5.28 2 17 17 1020.5 0 12.5 20.6 26.9 69.8 56.1 190.4
14 19:30 16 38 5.18 1.7 15 17 1020.5 0 12.3 20.5 26.5 68.8 54.9 186.1
14 19:20 16.4 37 5.16 1.7 17 17 1020.5 0 12.2 20.3 26.3 68.3 54.4 184.5
14 19:10 16.8 36 5.15 1.7 19 20 1020.4 0 12.2 20.2 26.1 67.9 54.0 183.2
14 19:00 17 36 5.21 1.8 17 22 1020.1 0 12.3 20.3 26.3 68.2 54.6 185.0
14 18:50 17.4 36 5.33 2.2 19 20 1019.8 0 12.5 20.3 26.5 69.0 55.6 188.8
14 18:40 17.6 36 5.4 2.4 19 20 1019.7 0 12.7 20.4 26.7 69.4 56.2 191.0
14 18:30 17.9 36 5.5 2.6 19 20 1019.6 0 12.9 20.5 26.9 70.1 57.1 194.2
14 18:20 18 39 5.99 3.9 19 22 1019.5 0 13.9 21.1 28.6 74.4 62.6 213.3
14 18:10 18.2 43 6.68 5.4 19 20 1019.4 0 15.3 22.0 30.9 80.7 70.3 240.6
14 18:00 18.7 42 6.72 5.5 20 30 1019 0 15.4 22.0 30.8 80.5 70.3 240.7
14 17:50 18.8 42 6.76 5.6 19 22 1019.2 0 15.5 22.0 31.0 80.8 70.7 242.1
14 17:40 19.1 41 6.72 5.6 24 28 1019.2 0 15.4 21.9 30.7 80.1 70.0 239.6
14 17:30 19.2 40 6.6 5.3 24 32 1019.1 0 15.1 21.7 30.2 78.9 68.5 234.4
14 17:20 19.5 38 6.38 4.8 20 26 1019 0 14.6 21.3 29.4 76.6 65.8 224.8
14 17:10 19.6 38 6.41 4.9 26 30 1018.8 0 14.7 21.3 29.4 76.8 66.0 225.6
14 17:00 19.8 36 6.15 4.3 20 22 1018.8 0 14.2 20.9 28.5 74.2 62.9 214.8
14 16:50 19.8 36 6.15 4.3 24 28 1018.7 0 14.2 20.9 28.5 74.2 62.9 214.8
14 16:40 19.9 36 6.18 4.4 24 28 1018.6 0 14.2 20.9 28.5 74.4 63.2 215.7
14 16:30 20.6 33 5.91 3.8 30 37 1018.6 0 13.6 20.4 27.4 71.3 59.7 203.5
14 16:20 20.3 34 5.98 3.9 28 30 1018.5 0 13.8 20.5 27.7 72.2 60.7 206.9
14 16:10 20.9 33 6.01 4 24 30 1018.5 0 13.8 20.5 27.6 72.0 60.6 206.6
14 16:00 21 32 5.86 3.7 26 30 1018.6 0 13.5 20.2 27.1 70.6 58.8 200.6
14 15:50 21.1 33 6.08 4.2 28 32 1018.5 0 14.0 20.5 27.8 72.4 61.2 208.7
14 15:40 21.2 32 5.93 3.9 32 37 1018.5 0 13.6 20.3 27.3 71.0 59.5 202.7
14 15:30 21 31 5.68 3.2 32 35 1018.4 0 13.1 20.0 26.5 69.0 56.9 193.7
14 15:20 21.1 30 5.53 2.9 30 33 1018.4 0 12.8 19.8 26.0 67.6 55.2 187.8
14 15:10 21.5 31 5.85 3.7 24 30 1018.3 0 13.5 20.1 26.9 70.0 58.4 198.9
14 15:00 20.8 32 5.79 3.5 32 43 1018.3 0 13.4 20.2 26.9 70.1 58.2 198.3
14 14:50 21 31 5.68 3.2 33 37 1018.3 0 13.1 20.0 26.5 69.0 56.9 193.7
14 14:40 20.8 33 5.97 4 35 39 1018.2 0 13.7 20.4 27.5 71.7 60.2 205.2
14 14:30 21.2 33 6.12 4.3 30 39 1018.1 0 14.0 20.5 27.9 72.6 61.5 210.0
14 14:20 20.8 33 5.97 4 26 30 1018 0 13.7 20.4 27.5 71.6 60.2 205.2
14 14:10 20.6 32 5.73 3.3 30 33 1018 0 13.3 20.1 26.8 69.7 57.7 196.5
14 14:00 20.3 33 5.8 3.5 30 35 1018.1 0 13.4 20.3 27.1 70.6 58.7 199.9
14 13:50 20.4 35 6.19 4.4 35 39 1018.1 0 14.2 20.8 28.4 74.0 62.9 214.7
14 13:40 20.3 36 6.33 4.8 30 32 1018.3 0 14.5 21.0 28.9 75.3 64.5 220.5
14 13:30 20.6 36 6.44 5 32 35 1018.4 0 14.7 21.1 29.2 76.1 65.5 224.0
14 13:20 20.1 39 6.78 5.7 35 41 1018.4 0 15.5 21.7 30.5 79.6 69.8 238.9
14 13:10 20 42 7.26 6.7 22 24 1018.8 0 16.5 22.4 32.2 84.2 75.4 258.6
14 13:00 19.9 42 7.22 6.6 28 32 1018.8 0 16.4 22.4 32.1 84.0 75.0 257.3
14 12:50 19.6 42 7.09 6.3 28 32 1018.9 0 16.1 22.3 31.8 83.1 73.8 253.0
14 12:40 19.3 45 7.46 7.1 30 33 1019.1 0 16.9 22.9 33.2 86.9 78.4 269.2
14 12:30 19.6 44 7.43 7 35 39 1019.2 0 16.8 22.8 33.0 86.3 77.8 267.0
14 12:20 19.1 50 8.2 8.4 28 32 1019.6 0 18.5 24.0 36.0 94.4 87.5 301.1
14 12:10 18.7 52 8.32 8.7 28 32 1019.7 0 18.8 24.3 36.7 96.0 89.5 307.8
14 12:00 18.5 53 8.38 8.7 28 30 1019.9 0 18.9 24.5 37.0 96.9 90.5 311.2
14 11:50 18.1 54 8.34 8.7 24 30 1020.1 0 18.8 24.5 37.0 97.0 90.4 311.1
14 11:40 18.2 57 8.86 9.5 28 32 1020.2 0 19.9 25.3 39.0 102.2 96.8 333.5
14 11:30 18.1 58 8.96 9.7 33 35 1020.3 0 20.1 25.5 39.4 103.3 98.2 338.3
14 11:20 17.8 60 9.11 9.9 24 30 1020.3 0 20.5 25.8 40.1 105.3 100.5 346.3
14 11:10 17.8 62 9.41 10.4 26 30 1020.5 0 21.1 26.3 41.3 108.4 104.4 359.9
14 11:00 17.4 62 9.19 10.1 26 35 1020.5 0 20.7 26.1 40.6 106.7 102.1 351.7
14 10:50 17.5 64 9.54 10.6 26 30 1020.5 0 21.4 26.6 42.0 110.2 106.5 367.2
14 10:40 17.2 64 9.37 10.3 26 30 1020.3 0 21.1 26.4 41.4 108.8 104.7 360.7
14 10:30 17.2 66 9.66 10.8 22 32 1020.4 0 21.7 26.9 42.6 111.9 108.5 374.0
14 10:20 16.8 66 9.44 10.4 33 35 1020.5 0 21.2 26.6 41.9 110.1 106.1 365.8
14 10:10 16.6 68 9.61 10.7 30 33 1020.6 0 21.6 27.0 42.7 112.2 108.6 374.6
14 10:00 16.5 70 9.83 11 32 35 1020.5 0 22.1 27.4 43.7 114.7 111.7 385.3
14 09:50 16.2 70 9.65 10.7 32 37 1020.4 0 21.7 27.2 43.1 113.2 109.7 378.4
14 09:40 16.1 72 9.87 11.1 32 37 1020.3 0 22.2 27.5 44.1 115.7 112.8 389.1
14 09:30 16 73 9.95 11.2 32 41 1020.3 0 22.3 27.7 44.4 116.8 114.0 393.4
14 09:20 15.7 76 10.17 11.5 30 35 1020.3 0 22.8 28.2 45.5 119.6 117.5 405.4
14 09:10 15.5 77 10.18 11.5 30 33 1020.2 0 22.9 28.2 45.7 120.0 117.9 406.9
14 09:00 15.3 78 10.19 11.5 32 35 1020.1 0 22.9 28.3 45.8 120.4 118.3 408.4
14 08:50 15.1 79 10.19 11.5 30 33 1020 0 22.9 28.4 45.9 120.7 118.6 409.4
14 08:40 15.1 79 10.19 11.5 24 30 1020 0 22.9 28.4 45.9 120.7 118.6 409.4
14 08:30 14.8 81 10.26 11.6 24 28 1019.8 0 23.1 28.6 46.4 122.0 120.1 414.3

Last Refresh: 15-Jun-2024 01:13:34

Bureau of Meteorology